Time;durP1;ratioP1;P1;durP2;ratioP2;P2;SDS_P1;SDS_P2;PMS_P1;PMS_P2;Temp;Humidity;BMP_temperature;BMP_pressure;BME280_temperature;BME280_humidity;BME280_pressure;Samples;Min_cycle;Max_cycle;Signal;HPM_P1;HPM_P2
2021/07/09 00:02:16;;;;;;;;;3.00;3.00;;;;;26.61;49.48;98491.75;4937870;28;110497;-85
2021/07/09 00:04:46;;;;;;;;;4.00;3.00;;;;;26.61;49.59;98500.06;4940750;28;102405;-85
2021/07/09 00:07:13;;;;;;;;;3.00;3.00;;;;;26.61;49.76;98508.41;4929949;28;102164;-84
2021/07/09 00:09:46;;;;;;;;;2.00;2.00;;;;;26.60;49.58;98509.56;4955445;28;102716;-85
2021/07/09 00:12:16;;;;;;;;;2.00;2.00;;;;;26.61;49.67;98547.22;4954203;27;108330;-85
2021/07/09 00:14:44;;;;;;;;;3.33;2.67;;;;;26.62;49.62;98559.97;4933467;28;103672;-83
2021/07/09 00:17:12;;;;;;;;;3.00;2.67;;;;;26.60;49.65;98540.06;4943825;28;102355;-83
2021/07/09 00:19:41;;;;;;;;;3.00;3.00;;;;;26.60;49.69;98534.53;4953831;28;102261;-82
2021/07/09 00:22:09;;;;;;;;;2.00;2.00;;;;;26.60;49.60;98540.06;4940379;28;103179;-82
2021/07/09 00:24:40;;;;;;;;;2.00;2.00;;;;;26.61;49.72;98540.91;4946557;28;102436;-83
2021/07/09 00:27:11;;;;;;;;;3.00;3.00;;;;;26.60;49.84;98534.53;4953865;28;102143;-83
2021/07/09 00:29:38;;;;;;;;;3.00;2.67;;;;;26.60;49.75;98530.91;4939799;28;103791;-82
2021/07/09 00:32:06;;;;;;;;;3.00;3.00;;;;;26.59;49.62;98521.78;4934261;28;103074;-82
2021/07/09 00:34:34;;;;;;;;;2.00;2.00;;;;;26.58;49.67;98509.03;4950673;28;102676;-83
2021/07/09 00:37:04;;;;;;;;;2.67;2.00;;;;;26.58;49.80;98495.16;4934084;28;102562;-82
2021/07/09 00:39:31;;;;;;;;;3.00;2.67;;;;;26.58;49.79;98491.56;4934055;28;102616;-82
2021/07/09 00:42:03;;;;;;;;;2.00;2.00;;;;;26.59;49.82;98501.53;4949117;28;104231;-83
2021/07/09 00:44:31;;;;;;;;;4.00;2.67;;;;;26.58;49.75;98494.34;4940578;28;102886;-82
2021/07/09 00:46:58;;;;;;;;;5.00;3.67;;;;;26.58;49.89;98481.28;4935575;28;102483;-83
2021/07/09 00:49:25;;;;;;;;;3.00;2.33;;;;;26.59;49.98;98487.66;4952841;28;102622;-83
2021/07/09 00:51:52;;;;;;;;;4.33;2.00;;;;;26.57;49.86;98476.88;4941896;28;104197;-82
2021/07/09 00:54:19;;;;;;;;;5.00;4.00;;;;;26.57;49.72;98485.19;4935699;28;103220;-83
2021/07/09 00:56:47;;;;;;;;;3.00;3.00;;;;;26.57;49.98;98479.63;4946244;28;105444;-83
2021/07/09 00:59:21;;;;;;;;;3.00;3.00;;;;;26.58;49.90;98472.97;4929252;28;102238;-83
2021/07/09 01:01:52;;;;;;;;;6.00;5.67;;;;;26.57;50.01;98479.63;4923124;28;109065;-82
2021/07/09 01:04:20;;;;;;;;;2.67;2.67;;;;;26.56;50.02;98475.25;4930615;28;103389;-83
2021/07/09 01:06:47;;;;;;;;;4.33;4.00;;;;;26.57;49.92;98464.94;4937744;28;105071;-82
2021/07/09 01:09:14;;;;;;;;;5.33;5.00;;;;;26.56;50.07;98475.25;4909786;28;104304;-83
2021/07/09 01:11:44;;;;;;;;;4.00;4.00;;;;;26.56;49.88;98471.66;4938160;28;103355;-82
2021/07/09 01:14:13;;;;;;;;;3.67;3.33;;;;;26.54;49.75;98463.63;4942042;28;102339;-82
2021/07/09 01:16:41;;;;;;;;;4.00;4.00;;;;;26.55;49.91;98456.97;4936950;28;103667;-82
2021/07/09 01:19:09;;;;;;;;;2.67;2.67;;;;;26.55;50.19;98473.59;4943139;28;102629;-82
2021/07/09 01:21:39;;;;;;;;;3.00;3.00;;;;;26.54;50.01;98469.16;4920750;28;103039;-82
2021/07/09 01:24:08;;;;;;;;;4.33;4.00;;;;;26.54;49.94;98469.16;4922246;28;102692;-83
2021/07/09 01:26:39;;;;;;;;;4.67;4.00;;;;;26.54;50.05;98458.06;4937598;28;102209;-82
2021/07/09 01:29:12;;;;;;;;;3.67;3.67;;;;;26.53;50.05;98450.06;4954736;28;103465;-83
2021/07/09 01:31:43;;;;;;;;;2.33;2.33;;;;;26.55;49.99;98442.25;4936931;28;103742;-83
2021/07/09 01:34:11;;;;;;;;;4.67;4.00;;;;;26.53;49.93;98439.78;4938184;28;102358;-83
2021/07/09 01:36:39;;;;;;;;;3.00;2.00;;;;;26.53;50.12;98445.34;4942051;28;102624;-83
2021/07/09 01:39:07;;;;;;;;;4.00;4.00;;;;;26.54;50.04;98440.63;4933386;28;102196;-83
2021/07/09 01:41:34;;;;;;;;;5.00;4.33;;;;;26.53;50.24;98434.25;4933660;28;104160;-84
2021/07/09 01:44:02;;;;;;;;;4.33;3.00;;;;;26.52;50.10;98427.03;4943089;28;102497;-84
2021/07/09 01:46:30;;;;;;;;;6.00;6.00;;;;;26.52;50.02;98421.50;4942418;28;102304;-84
2021/07/09 01:48:57;;;;;;;;;3.67;3.67;;;;;26.48;50.05;98420.47;4943381;28;102282;-84
2021/07/09 01:51:30;;;;;;;;;4.00;4.00;;;;;26.50;50.20;98415.47;4942844;28;104260;-84
2021/07/09 01:54:00;;;;;;;;;3.00;3.00;;;;;26.51;50.07;98422.66;4952449;28;102546;-83
2021/07/09 01:56:27;;;;;;;;;3.67;3.33;;;;;26.51;50.14;98422.66;4940115;28;102566;-83
2021/07/09 01:58:54;;;;;;;;;3.67;3.33;;;;;26.51;50.14;98425.44;4952948;28;102570;-83
2021/07/09 02:01:24;;;;;;;;;4.00;4.00;;;;;26.52;50.21;98423.47;4952817;28;104214;-84
2021/07/09 02:03:51;;;;;;;;;3.00;3.00;;;;;26.49;50.27;98433.22;4939592;28;102844;-84
2021/07/09 02:06:18;;;;;;;;;4.00;3.00;;;;;26.50;50.20;98431.28;4930297;28;104499;-84
2021/07/09 02:08:45;;;;;;;;;4.00;4.00;;;;;26.50;50.31;98423.78;4957344;28;102939;-84
2021/07/09 02:11:12;;;;;;;;;4.00;4.00;;;;;26.49;50.29;98433.22;4935525;28;104040;-84
2021/07/09 02:13:40;;;;;;;;;4.67;4.67;;;;;26.48;50.21;98420.47;4946017;28;102683;-83
2021/07/09 02:16:07;;;;;;;;;4.33;4.33;;;;;26.49;50.19;98415.75;4944980;28;102066;-84
2021/07/09 02:18:34;;;;;;;;;6.00;5.33;;;;;26.48;50.26;98419.66;4938067;28;102626;-84
2021/07/09 02:21:01;;;;;;;;;6.33;4.33;;;;;26.47;50.27;98410.53;4937826;28;104265;-83
2021/07/09 02:23:28;;;;;;;;;5.67;5.67;;;;;26.47;50.39;98405.00;4945853;28;102622;-83
2021/07/09 02:25:55;;;;;;;;;4.00;4.00;;;;;26.47;50.36;98404.16;4940346;28;103416;-84
2021/07/09 02:28:22;;;;;;;;;4.00;4.00;;;;;26.48;50.29;98397.47;4943530;28;102740;-83
2021/07/09 02:30:52;;;;;;;;;7.00;5.67;;;;;26.47;50.41;98401.41;4943392;28;108805;-83
2021/07/09 02:33:19;;;;;;;;;5.33;5.33;;;;;26.46;50.38;98402.53;4949019;28;102385;-82
2021/07/09 02:35:47;;;;;;;;;6.00;6.00;;;;;26.47;50.37;98407.78;4952446;28;102025;-83
2021/07/09 02:38:14;;;;;;;;;6.00;6.00;;;;;26.47;50.45;98405.00;4947694;28;104143;-82
2021/07/09 02:40:42;;;;;;;;;6.67;5.00;;;;;26.47;50.42;98396.66;4943261;28;104386;-83
2021/07/09 02:43:09;;;;;;;;;6.00;6.00;;;;;26.45;50.42;98403.66;4947030;28;102518;-82
2021/07/09 02:45:36;;;;;;;;;5.67;5.67;;;;;26.45;50.38;98393.38;4944826;28;102394;-82
2021/07/09 02:48:16;;;;;;;;;5.33;5.00;;;;;26.45;50.43;98393.38;4949531;28;104983;-82
2021/07/09 02:50:43;;;;;;;;;8.33;8.00;;;;;26.45;50.52;98392.56;4946833;28;104573;-82
2021/07/09 02:53:10;;;;;;;;;6.00;5.67;;;;;26.46;50.42;98405.28;4944845;28;102150;-83
2021/07/09 02:55:37;;;;;;;;;6.33;5.67;;;;;26.45;50.51;98398.91;4951596;28;102566;-82
2021/07/09 02:58:07;;;;;;;;;6.00;6.00;;;;;26.44;50.58;98394.50;4947574;28;102605;-84
2021/07/09 03:00:34;;;;;;;;;6.33;6.33;;;;;26.44;50.58;98397.28;4946145;28;104078;-84
2021/07/09 03:03:02;;;;;;;;;7.33;5.67;;;;;26.44;50.59;98393.66;4942769;28;102240;-83
2021/07/09 03:05:29;;;;;;;;;8.00;6.67;;;;;26.43;50.45;98395.63;4940973;28;102976;-84
2021/07/09 03:07:56;;;;;;;;;5.33;5.00;;;;;26.44;50.51;98396.44;4946269;28;103679;-83
2021/07/09 03:10:23;;;;;;;;;9.00;6.67;;;;;26.43;50.54;98389.28;4956563;28;104235;-82
2021/07/09 03:12:52;;;;;;;;;6.67;6.33;;;;;26.43;50.62;98398.41;4945243;28;102559;-82
2021/07/09 03:15:19;;;;;;;;;6.67;6.33;;;;;26.43;50.57;98387.31;4955577;28;104091;-82
2021/07/09 03:17:47;;;;;;;;;7.67;7.00;;;;;26.42;50.66;98380.13;4951386;28;102664;-83
2021/07/09 03:20:14;;;;;;;;;8.00;8.00;;;;;26.42;50.56;98388.47;4940982;28;104214;-82
2021/07/09 03:22:41;;;;;;;;;6.67;6.67;;;;;26.42;50.69;98388.47;4951023;28;102868;-83
2021/07/09 03:25:09;;;;;;;;;5.67;5.33;;;;;26.43;50.63;98386.50;4942193;28;102302;-82
2021/07/09 03:27:36;;;;;;;;;7.67;7.00;;;;;26.42;50.55;98394.00;4941777;28;102634;-83
2021/07/09 03:30:05;;;;;;;;;5.33;5.33;;;;;26.40;50.58;98392.66;4940058;28;103971;-83
2021/07/09 03:32:32;;;;;;;;;7.00;7.00;;;;;26.42;50.64;98395.94;4952467;28;102396;-83
2021/07/09 03:34:59;;;;;;;;;7.00;6.67;;;;;26.39;50.60;98391.81;4944359;27;102217;-84
2021/07/09 03:37:26;;;;;;;;;5.67;5.67;;;;;26.42;50.61;98395.94;4942092;28;102700;-83
2021/07/09 03:39:54;;;;;;;;;6.00;6.00;;;;;26.41;50.61;98399.84;4947938;28;104285;-84
2021/07/09 03:42:21;;;;;;;;;6.33;6.33;;;;;26.41;50.61;98403.44;4943157;28;102171;-84
2021/07/09 03:44:48;;;;;;;;;9.67;8.33;;;;;26.41;50.63;98409.00;4950255;28;102146;-84
2021/07/09 03:47:15;;;;;;;;;5.67;5.67;;;;;26.40;50.75;98415.66;4947296;28;104648;-84
2021/07/09 03:49:42;;;;;;;;;7.33;7.33;;;;;26.41;50.77;98410.94;4944248;28;104185;-84
2021/07/09 03:52:10;;;;;;;;;6.00;6.00;;;;;26.41;50.71;98405.41;4936608;28;103641;-83
2021/07/09 03:54:37;;;;;;;;;8.00;7.00;;;;;26.40;50.70;98404.56;4951324;28;102368;-82
2021/07/09 03:57:04;;;;;;;;;6.00;6.00;;;;;26.41;50.62;98397.91;4950325;28;102485;-82
2021/07/09 03:59:32;;;;;;;;;6.67;6.67;;;;;26.40;50.59;98400.97;4945271;28;103789;-82
2021/07/09 04:01:59;;;;;;;;;7.33;7.00;;;;;26.40;50.67;98396.25;4947910;28;102701;-82
2021/07/09 04:04:26;;;;;;;;;6.33;5.67;;;;;26.40;50.73;98396.25;4942634;28;102264;-83
2021/07/09 04:06:54;;;;;;;;;7.67;7.67;;;;;26.40;50.79;98403.75;4947112;28;102643;-83
2021/07/09 04:09:21;;;;;;;;;6.00;6.00;;;;;26.40;50.69;98407.34;4951878;28;110355;-83
2021/07/09 04:11:49;;;;;;;;;6.00;5.67;;;;;26.39;50.78;98400.16;4947827;28;102414;-83
2021/07/09 04:14:16;;;;;;;;;7.67;6.67;;;;;26.39;50.71;98399.31;4946621;28;102301;-83
2021/07/09 04:16:43;;;;;;;;;8.33;8.33;;;;;26.39;50.73;98411.22;4947093;28;102645;-83
2021/07/09 04:19:10;;;;;;;;;9.00;7.67;;;;;26.39;50.72;98408.47;4942962;28;104348;-83
2021/07/09 04:21:38;;;;;;;;;9.67;8.33;;;;;26.39;50.79;98402.09;4940794;28;102556;-83
2021/07/09 04:24:05;;;;;;;;;7.67;7.33;;;;;26.39;50.71;98405.69;4947169;28;102198;-82
2021/07/09 04:26:32;;;;;;;;;7.00;6.00;;;;;26.38;50.89;98398.53;4943581;28;102536;-83
2021/07/09 04:28:59;;;;;;;;;7.67;6.67;;;;;26.39;50.81;98400.16;4936268;28;103087;-82
2021/07/09 04:31:29;;;;;;;;;8.00;7.33;;;;;26.39;50.72;98399.31;4950599;28;103470;-82
2021/07/09 04:33:56;;;;;;;;;10.00;9.00;;;;;26.39;50.75;98402.09;4938750;28;102760;-82
2021/07/09 04:36:24;;;;;;;;;10.33;8.33;;;;;26.39;50.66;98402.91;4937874;28;102529;-83
2021/07/09 04:38:51;;;;;;;;;7.33;7.33;;;;;26.39;50.66;98408.47;4931172;28;104078;-82
2021/07/09 04:41:18;;;;;;;;;7.00;6.00;;;;;26.39;50.71;98399.31;4943652;28;102154;-83
2021/07/09 04:43:45;;;;;;;;;7.00;7.00;;;;;26.39;50.67;98404.88;4937791;28;103185;-82
2021/07/09 04:46:12;;;;;;;;;8.00;7.00;;;;;26.39;50.70;98405.69;4939023;28;103334;-83
2021/07/09 04:48:42;;;;;;;;;6.67;6.67;;;;;26.38;50.69;98398.53;4941237;28;103151;-83
2021/07/09 04:51:11;;;;;;;;;7.00;7.00;;;;;26.39;50.62;98400.16;4936379;28;102681;-83
2021/07/09 04:53:38;;;;;;;;;7.00;7.00;;;;;26.41;50.61;98408.16;4948072;28;102417;-82
2021/07/09 04:56:08;;;;;;;;;7.33;7.33;;;;;26.40;50.67;98400.97;4939801;28;102445;-82
2021/07/09 04:58:35;;;;;;;;;7.33;7.33;;;;;26.39;50.74;98400.16;4935686;28;104095;-82
2021/07/09 05:01:04;;;;;;;;;7.00;7.00;;;;;26.40;50.72;98407.34;4943617;28;103671;-82
2021/07/09 05:03:31;;;;;;;;;8.33;8.00;;;;;26.39;50.65;98400.16;4952294;28;102057;-82
2021/07/09 05:06:04;;;;;;;;;8.00;8.00;;;;;26.40;50.62;98407.34;4937934;28;102640;-83
2021/07/09 05:08:34;;;;;;;;;7.67;6.00;;;;;26.40;50.74;98393.47;4937225;28;104078;-82
2021/07/09 05:11:03;;;;;;;;;8.00;8.00;;;;;26.40;50.67;98395.44;4942124;28;102688;-82
2021/07/09 05:13:30;;;;;;;;;6.33;6.33;;;;;26.40;50.59;98399.03;4946595;28;102292;-83
2021/07/09 05:15:57;;;;;;;;;8.00;6.67;;;;;26.41;50.67;98400.66;4940177;28;102585;-82
2021/07/09 05:18:27;;;;;;;;;7.33;7.33;;;;;26.41;50.57;98419.25;4951150;28;108079;-83
2021/07/09 05:21:01;;;;;;;;;5.33;5.33;;;;;26.41;50.62;98464.44;4931888;28;102185;-82
2021/07/09 05:23:28;;;;;;;;;9.33;9.00;;;;;26.42;50.80;98479.13;4932825;28;102344;-83
2021/07/09 05:25:57;;;;;;;;;8.00;7.67;;;;;26.42;50.65;98476.38;4948238;28;103478;-82
2021/07/09 05:28:27;;;;;;;;;9.33;7.33;;;;;26.42;50.69;98476.38;4947514;28;108533;-83
2021/07/09 05:30:55;;;;;;;;;10.33;8.00;;;;;26.42;50.60;98498.53;4942576;28;102467;-84
2021/07/09 05:33:22;;;;;;;;;8.00;8.00;;;;;26.42;50.70;98496.59;4940418;28;102539;-82
2021/07/09 05:35:50;;;;;;;;;9.00;7.67;;;;;26.43;50.68;98475.25;4944829;28;102506;-82
2021/07/09 05:38:17;;;;;;;;;9.00;7.00;;;;;26.43;50.67;98501.00;4939606;28;104092;-83
2021/07/09 05:40:44;;;;;;;;;8.33;7.67;;;;;26.44;50.66;98510.13;4943108;28;102143;-82
2021/07/09 05:43:12;;;;;;;;;8.67;8.33;;;;;26.43;50.68;98502.97;4950419;28;102149;-82
2021/07/09 05:45:39;;;;;;;;;11.00;9.33;;;;;26.44;50.70;98497.09;4940857;28;104352;-82
2021/07/09 05:48:09;;;;;;;;;6.00;6.00;;;;;26.44;50.76;98496.28;4938009;28;104178;-82
2021/07/09 05:50:37;;;;;;;;;9.00;7.67;;;;;26.44;50.72;98497.09;4950414;28;102229;-83
2021/07/09 05:53:04;;;;;;;;;6.67;6.33;;;;;26.45;50.76;98479.34;4940064;28;104307;-82
2021/07/09 05:55:31;;;;;;;;;7.00;7.00;;;;;26.45;50.69;98470.19;4936230;28;103019;-82
2021/07/09 05:57:58;;;;;;;;;6.33;6.33;;;;;26.45;50.54;98487.66;4958203;28;104358;-82
2021/07/09 06:00:25;;;;;;;;;8.33;7.33;;;;;26.46;50.80;98497.63;4939199;28;102446;-82
2021/07/09 06:02:52;;;;;;;;;9.33;9.33;;;;;26.46;50.88;98482.94;4937366;28;101999;-82
2021/07/09 06:05:22;;;;;;;;;8.67;8.33;;;;;26.46;50.70;98458.81;4944252;28;102188;-82
2021/07/09 06:07:49;;;;;;;;;8.00;8.00;;;;;26.46;50.70;98483.75;4944161;28;104293;-83
2021/07/09 06:10:16;;;;;;;;;10.67;8.67;;;;;26.48;50.75;98478.72;4940187;28;102614;-83
2021/07/09 06:12:43;;;;;;;;;7.00;6.33;;;;;26.47;50.85;98468.78;4951631;28;102436;-83
2021/07/09 06:15:11;;;;;;;;;8.00;8.00;;;;;26.47;50.78;98446.59;4929350;28;103316;-82
2021/07/09 06:17:47;;;;;;;;;8.33;7.67;;;;;26.47;50.82;98457.69;4937700;28;104215;-83
2021/07/09 06:20:14;;;;;;;;;10.33;9.00;;;;;26.48;50.87;98467.63;4936616;28;102368;-83
2021/07/09 06:22:42;;;;;;;;;7.00;7.00;;;;;26.48;50.79;98464.03;4939703;28;103808;-83
2021/07/09 06:25:10;;;;;;;;;8.00;7.00;;;;;26.48;50.75;98453.75;4938455;28;102255;-82
2021/07/09 06:27:37;;;;;;;;;6.00;5.33;;;;;26.49;50.70;98433.22;4934463;28;104001;-83
2021/07/09 06:30:05;;;;;;;;;8.33;7.67;;;;;26.47;50.78;98429.94;4951555;28;102810;-83
2021/07/09 06:32:32;;;;;;;;;7.33;7.00;;;;;26.49;50.78;98446.25;4945068;28;102937;-82
2021/07/09 06:34:59;;;;;;;;;8.33;7.67;;;;;26.48;50.82;98459.31;4949376;28;102720;-82
2021/07/09 06:37:29;;;;;;;;;11.00;11.00;;;;;26.49;50.80;98449.84;4948310;28;103744;-83
2021/07/09 06:39:56;;;;;;;;;7.67;7.67;;;;;26.47;50.84;98418.03;4941265;28;108370;-83
2021/07/09 06:42:24;;;;;;;;;9.33;8.00;;;;;26.49;50.68;98413.81;4935954;28;110533;-82
2021/07/09 06:44:51;;;;;;;;;8.67;8.33;;;;;26.50;50.81;98420.19;4946351;28;102658;-81
2021/07/09 06:47:18;;;;;;;;;9.33;8.33;;;;;26.49;50.80;98433.22;4931111;28;104108;-83
2021/07/09 06:49:45;;;;;;;;;7.67;7.00;;;;;26.51;50.74;98430.97;4937213;28;102552;-82
2021/07/09 06:52:12;;;;;;;;;7.00;7.00;;;;;26.51;50.75;98408.78;4938628;28;102203;-83
2021/07/09 06:54:39;;;;;;;;;7.00;6.33;;;;;26.37;50.63;98379.41;4940004;28;102586;-81
2021/07/09 06:57:06;;;;;;;;;9.00;8.33;;;;;26.52;50.70;98401.28;4936895;28;104273;-82
2021/07/09 06:59:33;;;;;;;;;9.33;8.33;;;;;26.52;50.74;98404.06;4953685;28;102221;-82
2021/07/09 07:02:01;;;;;;;;;7.67;7.67;;;;;26.52;50.74;98404.84;4934341;28;102704;-82
2021/07/09 07:04:28;;;;;;;;;11.33;9.00;;;;;26.52;50.73;98388.22;4955516;28;102221;-84
2021/07/09 07:06:55;;;;;;;;;11.00;9.00;;;;;26.53;50.71;98383.50;4952300;28;109024;-83
2021/07/09 07:09:22;;;;;;;;;9.00;8.00;;;;;26.53;50.61;98377.94;4937239;28;102746;-83
2021/07/09 07:11:50;;;;;;;;;9.67;8.67;;;;;26.34;50.67;98352.31;4935092;28;103896;-82
2021/07/09 07:14:17;;;;;;;;;9.67;8.00;;;;;26.52;50.58;98360.47;4948659;28;102532;-82
2021/07/09 07:16:44;;;;;;;;;9.67;8.67;;;;;26.54;50.72;98369.34;4937148;28;104019;-83
2021/07/09 07:19:11;;;;;;;;;8.67;8.67;;;;;26.54;50.61;98369.34;4932403;28;102596;-81
2021/07/09 07:21:39;;;;;;;;;10.00;9.00;;;;;26.54;50.67;98366.56;4958296;28;103091;-83
2021/07/09 07:24:06;;;;;;;;;10.00;9.00;;;;;26.55;50.68;98353.50;4939019;28;102599;-82
2021/07/09 07:26:33;;;;;;;;;7.67;7.67;;;;;26.55;50.48;98353.50;4939210;28;104016;-82
2021/07/09 07:29:00;;;;;;;;;9.67;7.67;;;;;26.55;50.63;98359.88;4947026;28;102418;-83
2021/07/09 07:31:28;;;;;;;;;9.00;7.67;;;;;26.56;50.57;98344.06;4943111;28;102395;-82
2021/07/09 07:33:55;;;;;;;;;8.67;8.33;;;;;26.56;50.65;98350.44;4935876;28;102246;-82
2021/07/09 07:36:22;;;;;;;;;9.67;8.00;;;;;26.57;50.76;98343.75;4933952;28;104231;-82
2021/07/09 07:38:49;;;;;;;;;8.33;8.33;;;;;26.57;50.67;98346.50;4944453;28;102483;-82
2021/07/09 07:41:17;;;;;;;;;10.67;9.67;;;;;26.57;50.63;98343.75;4944030;28;102552;-83
2021/07/09 07:43:45;;;;;;;;;7.33;7.33;;;;;26.59;50.59;98341.50;4952722;28;102635;-82
2021/07/09 07:46:12;;;;;;;;;9.67;9.67;;;;;26.59;50.55;98333.16;4943087;28;104406;-83
2021/07/09 07:48:40;;;;;;;;;10.33;9.00;;;;;26.60;50.51;98336.75;4941869;28;102251;-83
2021/07/09 07:51:07;;;;;;;;;7.33;7.33;;;;;26.59;50.56;98344.25;4946460;28;102873;-82
2021/07/09 07:53:37;;;;;;;;;9.33;9.33;;;;;26.61;50.61;98332.88;4948163;28;102600;-82
2021/07/09 07:56:05;;;;;;;;;8.33;7.67;;;;;26.61;50.47;98332.88;4939306;28;104204;-83
2021/07/09 07:58:32;;;;;;;;;6.00;4.33;;;;;26.50;50.59;98312.84;4955988;28;102162;-83
2021/07/09 08:01:00;;;;;;;;;9.00;9.00;;;;;26.59;50.57;98324.84;4955081;28;102702;-82
2021/07/09 08:03:27;;;;;;;;;10.00;9.33;;;;;26.62;50.60;98349.19;4939118;28;107005;-82
2021/07/09 08:05:54;;;;;;;;;6.00;6.00;;;;;26.62;50.37;98351.13;4950816;28;104095;-82
2021/07/09 08:08:22;;;;;;;;;8.67;8.67;;;;;26.62;50.52;98360.28;4946418;28;102635;-83
2021/07/09 08:10:49;;;;;;;;;8.33;8.33;;;;;26.63;50.65;98356.38;4935694;28;102788;-82
2021/07/09 08:13:16;;;;;;;;;10.00;8.33;;;;;26.64;50.47;98358.03;4939093;28;103521;-82
2021/07/09 08:15:43;;;;;;;;;9.00;8.67;;;;;26.64;50.57;98346.09;4940977;28;104241;-83
2021/07/09 08:18:10;;;;;;;;;9.67;9.33;;;;;26.65;50.45;98347.75;4938040;28;102598;-82
2021/07/09 08:20:39;;;;;;;;;10.00;8.67;;;;;26.66;50.38;98348.56;4933928;28;105142;-82
2021/07/09 08:23:06;;;;;;;;;8.67;7.00;;;;;26.67;50.34;98333.53;4954679;28;102162;-82
2021/07/09 08:25:34;;;;;;;;;9.00;8.00;;;;;26.67;50.44;98328.00;4942025;28;104216;-81
2021/07/09 08:28:01;;;;;;;;;8.67;8.67;;;;;26.67;50.32;98325.22;4944060;28;102170;-83
2021/07/09 08:30:28;;;;;;;;;7.00;7.00;;;;;26.68;50.32;98318.56;4951433;28;102133;-83
2021/07/09 08:32:55;;;;;;;;;7.67;7.67;;;;;26.68;50.52;98324.91;4931289;28;102697;-82
2021/07/09 08:35:23;;;;;;;;;8.00;7.00;;;;;26.69;50.44;98321.03;4929610;28;104270;-83
2021/07/09 08:37:51;;;;;;;;;12.00;7.67;;;;;26.71;50.44;98323.47;4939594;28;102562;-83
2021/07/09 08:40:18;;;;;;;;;8.67;8.67;;;;;26.71;50.50;98321.50;4938350;28;104408;-83
2021/07/09 08:42:46;;;;;;;;;7.00;7.00;;;;;26.72;50.14;98325.13;4940264;28;102536;-82
2021/07/09 08:45:13;;;;;;;;;7.00;6.67;;;;;26.72;50.51;98325.13;4950452;28;104523;-83
2021/07/09 08:47:41;;;;;;;;;7.00;7.00;;;;;26.72;50.54;98323.16;4935225;28;102084;-83
2021/07/09 08:50:10;;;;;;;;;9.33;8.33;;;;;26.74;50.46;98325.63;4937020;28;102842;-83
2021/07/09 08:52:37;;;;;;;;;7.00;6.00;;;;;26.74;50.41;98312.59;4945106;28;102472;-82
2021/07/09 08:55:05;;;;;;;;;7.00;6.67;;;;;26.75;50.32;98325.31;4942631;28;104221;-82
2021/07/09 08:57:32;;;;;;;;;6.67;6.67;;;;;26.76;50.28;98326.94;4931410;28;102551;-82
2021/07/09 08:59:59;;;;;;;;;8.67;7.67;;;;;26.76;50.22;98332.50;4934925;28;102615;-83
2021/07/09 09:02:27;;;;;;;;;7.00;7.00;;;;;26.78;50.36;98337.75;4928095;28;102527;-82
2021/07/09 09:04:55;;;;;;;;;6.67;6.00;;;;;26.78;50.26;98341.34;4935275;28;104243;-82
2021/07/09 09:07:27;;;;;;;;;8.67;8.00;;;;;26.80;50.33;98338.22;4949205;28;102203;-83
2021/07/09 09:09:54;;;;;;;;;9.00;8.33;;;;;26.80;50.42;98341.00;4942307;28;102635;-83
2021/07/09 09:12:45;;;;;;;;;8.67;8.33;;;;;26.80;50.21;98339.06;4876164;28;102594;-83
2021/07/09 09:15:13;;;;;;;;;9.00;8.33;;;;;26.81;50.38;98340.72;4937759;28;107690;-83
2021/07/09 09:17:40;;;;;;;;;8.00;7.67;;;;;26.80;50.17;98339.06;4937916;28;102360;-82
2021/07/09 09:20:14;;;;;;;;;9.00;9.00;;;;;26.83;50.33;98351.50;4937060;28;102189;-82
2021/07/09 09:22:50;;;;;;;;;7.33;7.33;;;;;26.83;50.14;98346.78;4947493;28;102708;-82
2021/07/09 09:25:19;;;;;;;;;8.67;7.67;;;;;26.85;50.50;98346.44;4943983;28;104075;-82
2021/07/09 09:28:06;;;;;;;;;8.00;8.00;;;;;26.84;50.32;98344.78;4930705;28;104150;-82
2021/07/09 09:30:34;;;;;;;;;6.00;6.00;;;;;26.84;50.23;98344.78;4936156;28;102514;-82
2021/07/09 09:33:04;;;;;;;;;7.33;7.00;;;;;26.85;50.24;98358.41;4943211;28;102353;-83
2021/07/09 09:35:34;;;;;;;;;8.00;8.00;;;;;26.86;50.36;98360.03;4930948;28;109398;-82
2021/07/09 09:38:04;;;;;;;;;6.33;6.33;;;;;26.85;50.29;98352.84;4934537;28;102673;-82
2021/07/09 09:40:32;;;;;;;;;7.33;7.00;;;;;26.87;50.11;98356.16;4936440;28;102181;-82
2021/07/09 09:43:08;;;;;;;;;7.67;6.67;;;;;26.86;50.19;98353.66;4935384;28;102425;-82
2021/07/09 09:45:36;;;;;;;;;6.67;5.67;;;;;26.88;50.03;98351.41;4935611;28;107727;-82
2021/07/09 09:48:05;;;;;;;;;8.67;7.67;;;;;26.88;50.35;98340.31;4936549;28;101756;-82
2021/07/09 09:50:39;;;;;;;;;9.00;7.67;;;;;26.88;50.17;98340.31;4940729;28;102551;-82
2021/07/09 09:53:07;;;;;;;;;7.00;7.00;;;;;26.88;50.33;98340.31;4929778;28;102474;-84
2021/07/09 09:55:34;;;;;;;;;6.67;6.67;;;;;26.89;50.32;98339.16;4933589;28;104067;-83
2021/07/09 09:58:10;;;;;;;;;9.33;6.00;;;;;26.90;50.09;98346.34;4935403;28;102378;-83
2021/07/09 10:00:38;;;;;;;;;7.67;7.67;;;;;26.88;50.03;98332.78;4930845;28;102258;-83
2021/07/09 10:03:17;;;;;;;;;9.00;9.00;;;;;26.90;50.31;98326.94;4932982;28;102130;-83
2021/07/09 10:05:45;;;;;;;;;6.33;5.67;;;;;26.89;50.28;98325.28;4937164;28;104082;-83
2021/07/09 10:08:14;;;;;;;;;9.00;8.33;;;;;26.90;50.18;98310.28;4941625;28;102410;-83
2021/07/09 10:10:42;;;;;;;;;7.67;7.67;;;;;26.89;50.13;98305.88;4931003;28;102851;-84
2021/07/09 10:13:16;;;;;;;;;8.67;8.33;;;;;26.89;50.01;98292.00;4947197;28;102720;-83
2021/07/09 10:15:44;;;;;;;;;5.33;5.33;;;;;26.89;49.97;98286.44;4936361;28;103908;-83
2021/07/09 10:18:13;;;;;;;;;7.67;7.00;;;;;26.90;50.21;98285.31;4942913;28;102702;-84
2021/07/09 10:20:41;;;;;;;;;7.00;7.00;;;;;26.91;50.19;98286.97;4946807;28;104048;-83
2021/07/09 10:23:17;;;;;;;;;6.00;6.00;;;;;26.89;50.17;98289.22;4930197;28;102742;-84
2021/07/09 10:25:45;;;;;;;;;8.00;7.67;;;;;26.90;50.32;98290.88;4931512;28;104026;-84
2021/07/09 10:28:12;;;;;;;;;9.00;7.67;;;;;26.89;50.04;98295.59;4932840;28;102615;-85
2021/07/09 10:30:41;;;;;;;;;7.67;6.33;;;;;26.89;50.05;98305.88;4951590;28;102060;-85
2021/07/09 10:33:31;;;;;;;;;7.00;5.67;;;;;26.90;50.29;98315.84;4934312;28;102756;-85
2021/07/09 10:36:08;;;;;;;;;8.67;7.33;;;;;26.90;50.01;98307.50;4931087;28;104275;-85
2021/07/09 10:38:40;;;;;;;;;8.67;8.67;;;;;26.90;50.11;98304.72;4946855;28;102544;-85
2021/07/09 10:41:12;;;;;;;;;6.00;6.00;;;;;26.88;50.12;98307.81;4937663;28;102402;-85
2021/07/09 10:43:39;;;;;;;;;5.33;4.33;;;;;26.87;50.25;98303.44;4933040;28;102317;-85
2021/07/09 10:46:09;;;;;;;;;7.33;7.00;;;;;26.89;50.37;98303.91;4938301;28;104258;-82
2021/07/09 10:48:39;;;;;;;;;7.67;6.00;;;;;26.87;50.30;98300.66;4938284;28;102160;-84
2021/07/09 10:51:06;;;;;;;;;6.33;6.33;;;;;26.88;50.26;98293.94;4937062;28;102244;-82
2021/07/09 10:53:34;;;;;;;;;8.33;7.67;;;;;26.88;50.42;98290.38;4941469;28;102627;-84
2021/07/09 10:56:14;;;;;;;;;7.00;6.33;;;;;26.88;50.34;98290.38;4938732;28;105372;-82
2021/07/09 10:58:45;;;;;;;;;6.33;6.33;;;;;26.88;50.40;98295.91;4880792;28;102499;-82
2021/07/09 11:01:17;;;;;;;;;6.00;6.00;;;;;26.88;50.13;98307.03;4940341;28;104043;-82
2021/07/09 11:03:48;;;;;;;;;6.33;6.33;;;;;26.90;50.25;98305.56;4942319;28;102525;-82
2021/07/09 11:06:22;;;;;;;;;5.67;5.67;;;;;26.89;50.27;98303.09;4947208;28;103790;-82
2021/07/09 11:09:05;;;;;;;;;8.67;7.33;;;;;26.89;50.11;98301.13;4927355;28;102461;-83
2021/07/09 11:11:43;;;;;;;;;6.33;6.33;;;;;26.89;50.19;98303.09;4942776;28;102565;-82
2021/07/09 11:14:34;;;;;;;;;6.33;5.67;;;;;26.89;50.12;98311.41;4898537;28;102565;-83
2021/07/09 11:17:12;;;;;;;;;7.67;7.67;;;;;26.89;50.18;98311.41;4947352;28;108760;-82
2021/07/09 11:19:47;;;;;;;;;8.00;8.00;;;;;26.89;50.04;98322.50;4881825;28;106133;-82
2021/07/09 11:22:19;;;;;;;;;7.67;7.00;;;;;26.89;50.10;98314.19;4945121;28;102482;-82
2021/07/09 11:24:57;;;;;;;;;7.67;7.33;;;;;26.89;50.24;98301.13;4957300;28;104555;-82
2021/07/09 11:27:27;;;;;;;;;5.67;5.67;;;;;26.88;50.21;98290.38;4942461;28;104241;-82
2021/07/09 11:30:01;;;;;;;;;7.33;6.67;;;;;26.87;50.50;98286.78;4945422;28;102226;-82
2021/07/09 11:32:33;;;;;;;;;6.33;6.33;;;;;26.88;50.19;98274.53;4953332;28;102579;-83